Latest Coastal Weather Observations for Port Fairy

IDV60701

Issued at 10:51 am EST Saturday 30 May 2015 (issued every 10 minutes, with the page automatically refreshed every 10 minutes)

About coastal observations | Map of coastal stations | Coastal observations for VIC | Marine services | Other Formats
Station Details ID: 090175 Name: PORT FAIRY AWS Lat: -38.39 Lon: 142.23 Height: 10.0 m
Data from the previous 72 hours. | See also: Recent months at Port Fairy
Date/Time
EST
Temp

°C
Wind Pressure Rain
since 9am
mm
Weather Cloud Vis
km
Sea
Height
m
Swell
Dir
 
Speed
knots
Gust
knots
hPa Trend Height
m
Period
s
Dir
30/10:30am 12.4 NW 12 21 1017.5 - 0.0 - - - - - - -
30/10:00am 12.3 NW 12 20 1017.3 - 0.0 - - - - - - -
30/09:30am 11.4 NNW 14 22 1017.2 - 0.0 - - - - - - -
30/09:00am 11.1 NNW 14 23 1017.5 - 0.2 - - - - - - -
30/08:30am 10.5 NNW 13 22 1017.4 - 0.2 - - - - - - -
30/08:00am 9.5 NNW 12 19 1017.5 - 0.2 - - - - - - -
30/07:30am 9.4 NNW 11 20 1017.7 - 0.2 - - - - - - -
30/07:00am 9.3 NNW 12 18 1017.5 - 0.2 - - - - - - -
30/06:30am 9.2 NNW 11 17 1017.6 - 0.2 - - - - - - -
30/06:00am 9.0 NNW 10 16 1017.7 - 0.2 - - - - - - -
30/05:30am 8.7 NNW 10 15 1017.7 - 0.2 - - - - - - -
30/05:00am 8.8 NNW 11 19 1017.8 - 0.2 - - - - - - -
30/04:30am 8.9 NNW 11 16 1017.8 - 0.2 - - - - - - -
30/04:00am 9.1 NNW 10 15 1018.1 - 0.2 - - - - - - -
30/03:30am 9.0 NNW 9 13 1018.5 - 0.0 - - - - - - -
30/03:00am 9.1 NNW 9 15 1019.2 - 0.0 - - - - - - -
30/02:30am 8.7 NNW 8 13 1019.1 - 0.0 - - - - - - -
30/02:00am 8.7 NNW 9 13 1019.2 - 0.0 - - - - - - -
30/01:30am 8.7 NNW 9 15 1019.4 - 0.0 - - - - - - -
30/01:00am 8.6 NNW 8 12 1019.6 - 0.0 - - - - - - -
30/12:30am 8.8 NNW 9 16 1019.9 - 0.0 - - - - - - -
30/12:00am 8.9 NNW 8 14 1020.3 - 0.0 - - - - - - -
 
Date/Time
EST
Temp

°C
Wind Pressure Rain
since 9am
mm
Weather Cloud Vis
km
Sea
Height
m
Swell
Dir
 
Speed
knots
Gust
knots
hPa Trend Height
m
Period
s
Dir
29/11:30pm 9.0 NNW 8 14 1020.6 - 0.0 - - - - - - -
29/11:00pm 8.9 NNW 8 13 1020.7 - 0.0 - - - - - - -
29/10:30pm 8.9 NNW 8 13 1020.8 - 0.0 - - - - - - -
29/10:00pm 8.8 NNW 8 11 1020.9 - 0.0 - - - - - - -
29/09:30pm 8.9 NNW 8 11 1020.8 - 0.0 - - - - - - -
29/09:00pm 8.9 NNW 8 13 1020.8 - 0.0 - - - - - - -
29/08:30pm 8.7 NNW 6 9 1020.8 - 0.0 - - - - - - -
29/08:00pm 8.7 NNW 6 9 1020.9 - 0.0 - - - - - - -
29/07:30pm 9.0 N 5 8 1020.8 - 0.0 - - - - - - -
29/07:00pm 9.4 NNW 6 8 1020.7 - 0.0 - - - - - - -
29/06:30pm 9.7 NW 6 8 1020.6 - 0.0 - - - - - - -
29/06:00pm 10.0 NW 5 8 1020.5 - 0.0 - - - - - - -
29/05:30pm 10.7 NW 6 9 1020.3 - 0.0 - - - - - - -
29/05:00pm 11.7 NW 6 10 1020.2 - 0.0 - - - - - - -
29/04:30pm 12.8 NW 5 11 1020.2 - 0.0 - - - - - - -
29/04:00pm 12.6 WNW 6 9 1020.3 - 0.0 - - - - - - -
29/03:30pm 12.5 WNW 6 11 1020.2 - 0.0 - - - - - - -
29/03:00pm 12.5 W 9 15 1020.1 - 0.0 - - - - - - -
29/02:30pm 13.2 WNW 6 10 1020.1 - 0.0 - - - - - - -
29/02:00pm 11.4 WNW 9 16 1020.2 - 0.0 - - - - - - -
29/01:30pm 12.7 WNW 9 16 1020.2 - 0.0 - - - - - - -
29/01:00pm 12.2 NW 7 13 1020.2 - 0.0 - - - - - - -
29/12:30pm 11.6 WNW 9 14 1020.6 - 0.0 - - - - - - -
29/12:00pm 12.4 WNW 7 14 1020.7 - 0.0 - - - - - - -
29/11:30am 12.3 NW 9 15 1021.0 - 0.0 - - - - - - -
29/11:00am 11.5 NW 7 13 1021.2 - 0.0 - - - - - - -
29/10:30am 11.0 NNW 8 12 1021.0 - 0.0 - - - - - - -
29/10:00am 10.4 NNW 8 13 1020.9 - 0.0 - - - - - - -
29/09:30am 9.2 NNW 8 13 1020.8 - 0.0 - - - - - - -
29/09:00am 8.4 NNW 7 12 1020.6 - 7.2 Recent precip. - - - - - -
29/08:30am 7.9 NNW 6 9 1020.3 - 7.2 - - - - - - -
29/08:00am 7.4 NNW 6 9 1020.0 - 7.0 - - - - - - -
29/07:30am 7.4 NNW 8 13 1019.9 - 7.0 - - - - - - -
29/07:00am 7.4 NNW 7 10 1019.4 - 6.8 - - - - - - -
29/06:30am 7.3 NNW 7 10 1019.1 - 6.8 - - - - - - -
29/06:00am 7.7 NNW 6 9 1018.8 - 6.8 Rain - - - - - -
29/05:30am 7.9 NW 7 10 1018.5 - 6.6 - - - - - - -
29/05:00am 8.1 NNW 7 10 1018.3 - 6.6 - - - - - - -
29/04:30am 7.5 NNW 7 11 1018.2 - 6.6 - - - - - - -
29/04:00am 7.5 NNW 7 10 1018.1 - 6.6 - - - - - - -
29/03:30am 7.9 NW 7 10 1018.1 - 6.6 - - - - - - -
29/03:00am 7.7 NNW 7 10 1017.8 - 6.6 - - - - - - -
29/02:30am 8.0 NNW 8 11 1017.5 - 6.6 - - - - - - -
29/02:00am 8.3 NNW 7 11 1017.5 - 6.6 - - - - - - -
29/01:30am 8.5 NW 6 10 1017.5 - 6.6 - - - - - - -
29/01:00am 8.9 NW 7 12 1017.6 - 6.4 - - - - - - -
29/12:30am 8.7 NNW 9 14 1017.2 - 6.2 - - - - - - -
29/12:00am 8.6 NW 7 10 1017.3 - 6.2 - - - - - - -
 
Date/Time
EST
Temp

°C
Wind Pressure Rain
since 9am
mm
Weather Cloud Vis
km
Sea
Height
m
Swell
Dir
 
Speed
knots
Gust
knots
hPa Trend Height
m
Period
s
Dir
28/11:30pm 8.7 NNW 7 11 1017.0 - 6.2 - - - - - - -
28/11:00pm 8.9 NNW 7 10 1016.8 - 6.2 - - - - - - -
28/10:30pm 9.1 NNW 8 11 1016.8 - 6.2 - - - - - - -
28/10:00pm 9.6 WNW 8 13 1016.8 - 6.2 - - - - - - -
28/09:30pm 9.7 NW 8 11 1016.2 - 6.0 - - - - - - -
28/09:00pm 10.0 NW 7 10 1016.1 - 6.0 Recent precip. - - - - - -
28/08:30pm 10.0 NNW 7 10 1015.7 - 6.0 - - - - - - -
28/08:00pm 10.4 NNW 8 11 1015.4 - 5.8 - - - - - - -
28/07:30pm 10.8 NW 6 11 1015.1 - 5.8 - - - - - - -
28/07:00pm 11.3 WNW 5 8 1014.9 - 5.8 - - - - - - -
28/06:30pm 11.6 NW 7 13 1014.7 - 5.0 - - - - - - -
28/06:00pm 11.7 WNW 8 13 1014.1 - 5.0 - - - - - - -
28/05:30pm 11.7 WNW 9 15 1013.8 - 5.0 - - - - - - -
28/05:00pm 12.1 WNW 11 19 1013.6 - 5.0 - - - - - - -
28/04:30pm 12.2 WNW 8 13 1013.3 - 4.8 - - - - - - -
28/04:16pm 12.0 W 15 24 1013.4 - 4.8 - - - - - - -
28/04:00pm 12.4 WNW 9 13 1013.2 - 4.4 - - - - - - -
28/03:30pm 13.0 WNW 11 18 1012.8 - 1.8 - - - - - - -
28/03:00pm 14.7 NW 10 15 1012.2 - 0.0 - - - - - - -
28/02:30pm 15.7 NW 9 21 1011.8 - 0.0 - - - - - - -
28/02:00pm 15.1 NW 10 16 1012.0 - 0.0 - - - - - - -
28/01:30pm 16.2 NW 11 22 1011.9 - 0.0 - - - - - - -
28/01:00pm 17.3 NW 11 24 1012.0 - 0.0 - - - - - - -
28/12:30pm 17.8 NW 12 19 1012.2 - 0.0 - - - - - - -
28/12:00pm 17.7 NW 12 21 1012.7 - 0.0 - - - - - - -
28/11:45am 16.8 NNW 15 27 1012.8 - 0.0 - - - - - - -
28/11:30am 17.0 NW 13 23 1013.0 - 0.0 - - - - - - -
28/11:09am 16.8 NNW 15 27 1013.2 - 0.0 - - - - - - -
28/11:00am 16.7 NNW 16 25 1013.4 - 0.0 - - - - - - -
28/10:40am 16.4 NNW 15 26 1013.5 - 0.0 - - - - - - -
28/10:30am 16.3 NNW 12 22 1013.7 - 0.0 - - - - - - -
28/10:00am 15.6 NNW 14 23 1013.8 - 0.0 - - - - - - -
28/09:30am 14.8 NNW 10 17 1014.0 - 0.0 - - - - - - -
28/09:00am 13.9 NNW 11 21 1014.0 - 5.4 - - - - - - -
28/08:30am 13.4 NNW 9 16 1014.1 - 5.4 - - - - - - -
28/08:00am 13.4 NNW 9 15 1014.2 - 5.4 - - - - - - -
28/07:30am 13.4 NNW 9 15 1014.2 - 5.4 - - - - - - -
28/07:00am 13.2 NNW 8 15 1014.3 - 5.4 - - - - - - -
28/06:30am 13.2 NNW 10 19 1014.1 - 5.4 - - - - - - -
28/06:00am 12.9 NNW 9 12 1013.7 - 5.4 - - - - - - -
28/05:30am 12.6 NNW 7 12 1014.1 - 5.4 - - - - - - -
28/05:00am 12.1 N 6 8 1014.0 - 5.4 - - - - - - -
28/04:30am 11.9 N 6 9 1014.4 - 5.4 - - - - - - -
28/04:00am 12.1 NNW 5 8 1014.6 - 5.4 - - - - - - -
28/03:30am 12.6 N 6 9 1014.6 - 5.4 - - - - - - -
28/03:00am 13.2 NNW 6 11 1014.8 - 5.2 Recent precip. - - - - - -
28/02:30am 13.4 NNW 6 9 1015.3 - 4.6 - - - - - - -
28/02:00am 13.4 NNW 7 13 1015.4 - 4.0 - - - - - - -
28/01:30am 13.6 NW 7 10 1015.6 - 2.0 - - - - - - -
28/01:00am 13.9 NNW 9 14 1015.6 - 0.2 - - - - - - -
28/12:30am 13.9 NNW 7 13 1015.7 - 0.0 - - - - - - -
28/12:00am 13.7 NNW 6 10 1015.8 - 0.0 - - - - - - -
 
Date/Time
EST
Temp

°C
Wind Pressure Rain
since 9am
mm
Weather Cloud Vis
km
Sea
Height
m
Swell
Dir
 
Speed
knots
Gust
knots
hPa Trend Height
m
Period
s
Dir
27/11:30pm 13.9 N 8 13 1015.8 - 0.0 - - - - - - -
27/11:00pm 14.2 NNW 7 13 1016.0 - 0.0 - - - - - - -
27/10:30pm 14.3 NNW 8 11 1016.2 - 0.0 - - - - - - -
27/10:00pm 14.3 NNW 8 15 1016.3 - 0.0 - - - - - - -
27/09:30pm 14.0 NNW 6 9 1016.3 - 0.0 - - - - - - -
27/09:00pm 13.7 NNW 6 9 1016.4 - 0.0 - - - - - - -
27/08:30pm 13.9 NNW 7 11 1016.4 - 0.0 - - - - - - -
27/08:00pm 13.7 NNW 6 9 1016.1 - 0.0 - - - - - - -
27/07:30pm 13.9 NNW 4 7 1016.1 - 0.0 - - - - - - -
27/07:00pm 14.5 NW 6 9 1016.2 - 0.0 - - - - - - -
27/06:30pm 14.6 NNW 4 6 1016.0 - 0.0 - - - - - - -
27/06:00pm 14.8 NW 4 5 1015.9 - 0.0 - - - - - - -
27/05:30pm 15.9 NNW 7 11 1015.6 - 0.0 - - - - - - -
27/05:00pm 16.8 NNW 9 15 1015.6 - 0.0 - - - - - - -
27/04:30pm 17.0 NNW 8 13 1015.4 - 0.0 - - - - - - -
27/04:00pm 17.3 NNW 8 14 1015.6 - 0.0 - - - - - - -
27/03:30pm 17.7 NNW 10 17 1015.4 - 0.0 - - - - - - -
27/03:00pm 17.8 NNW 12 19 1015.3 - 0.0 - - - - - - -
27/02:30pm 18.5 NNW 11 17 1015.5 - 0.0 - - - - - - -
27/02:00pm 18.3 NW 11 19 1015.8 - 0.0 - - - - - - -
27/01:30pm 18.1 NW 11 17 1016.1 - 0.0 - - - - - - -
27/01:00pm 17.8 NW 10 17 1016.4 - 0.0 - - - - - - -
27/12:30pm 17.9 NW 9 15 1016.8 - 0.0 - - - - - - -
27/12:00pm 17.9 NNW 10 16 1017.3 - 0.0 - - - - - - -
27/11:30am 17.0 NNW 10 16 1017.5 - 0.0 - - - - - - -
27/11:00am 16.5 NNW 9 15 1017.8 - 0.0 - - - - - - -

Other Formats:

Comma delimited format used in spreadsheet applications
http://www.bom.gov.au/fwo/IDV60701/IDV60701.94830.axf

JavaScript Object Notation format (JSON) in row-major order
http://www.bom.gov.au/fwo/IDV60701/IDV60701.94830.json